CST,Max TemperatureF,Mean TemperatureF,Min TemperatureF,Max Dew PointF,MeanDew PointF,Min DewpointF,Max Humidity, Mean Humidity, Min Humidity, Max Sea Level PressureIn, Mean Sea Level PressureIn, Min Sea Level PressureIn, Max VisibilityMiles, Mean VisibilityMiles, Min VisibilityMiles, Max Wind SpeedMPH, Mean Wind SpeedMPH, Max Gust SpeedMPH,PrecipitationIn, CloudCover, Events, WindDirDegrees
2013-2-1,5,-2,-9,0,-6,-16,86,71,56,30.42,30.25,30.09,10,6,1,14,7,17,0.09,5,Snow,192
2013-2-2,13,7,1,7,2,-3,87,75,63,30.24,30.12,29.99,10,6,2,8,4,9,0.02,6,Snow,140
2013-2-3,16,12,8,10,7,1,88,74,59,30.14,30.04,29.95,10,5,2,23,6,29,0.09,7,Snow,310
2013-2-4,18,13,7,10,5,-2,88,69,49,30.09,30.01,29.94,10,8,1,13,5,14,0.06,4,Snow,3
2013-2-5,30,16,2,24,13,-1,96,82,68,30.16,29.90,29.73,10,5,0,20,8,24,0.12,6,Fog-Snow,186
2013-2-6,32,13,-7,27,9,-11,95,81,66,30.25,30.13,29.99,10,6,1,16,4,21,T,5,Snow,137
2013-2-7,31,29,26,27,26,23,92,88,84,30.23,30.05,29.98,10,5,1,15,8,17,0.02,8,Rain-Snow,344
2013-2-8,30,21,11,23,14,7,84,65,46,30.43,30.35,30.22,10,10,8,12,4,16,T,4,,24
2013-2-9,30,21,12,24,20,11,84,78,72,30.38,30.21,30.04,10,9,6,20,12,25,T,8,,158
2013-2-10,40,35,30,37,32,25,92,85,78,30.02,29.52,29.28,10,6,2,28,10,36,0.37,8,Rain-Snow,149
2013-2-11,35,29,22,34,24,14,96,82,68,30.08,29.66,29.28,10,9,4,26,18,32,0.02,8,Rain-Snow,272
2013-2-12,33,26,18,23,18,12,81,72,63,30.12,30.01,29.87,10,10,9,18,8,22,T,3,,210
2013-2-13,37,28,19,31,24,18,92,78,64,29.86,29.74,29.57,10,8,4,12,5,14,0.03,6,Snow,175
2013-2-14,36,28,19,32,25,7,89,72,54,30.16,29.78,29.55,10,8,2,24,12,29,0.03,7,Snow,317
2013-2-15,20,15,10,7,5,1,73,64,54,30.32,30.27,30.17,10,10,10,16,9,20,0.00,1,,315
2013-2-16,19,12,4,4,2,0,83,66,49,30.30,30.26,30.22,10,10,10,10,5,12,0.00,2,,335
2013-2-17,30,17,3,19,8,-3,83,67,50,30.25,30.08,29.82,10,10,10,20,10,25,0.00,1,,143
2013-2-18,40,28,16,30,22,9,89,77,64,29.77,29.63,29.55,10,8,2,22,12,28,T,5,Snow,240
2013-2-19,16,11,5,9,2,-5,80,69,58,30.37,29.96,29.70,10,6,1,30,18,36,0.04,6,Snow,305
2013-2-20,20,11,2,7,0,-6,76,66,56,30.50,30.46,30.40,10,10,10,14,8,16,0.00,1,,329
2013-2-21,24,15,6,20,10,2,88,75,62,30.50,30.32,30.03,10,9,0,16,7,25,0.06,2,Fog-Snow,74
2013-2-22,30,27,23,23,20,17,88,81,74,30.04,29.90,29.82,10,4,0,18,6,28,0.32,8,Fog-Snow,13
2013-2-23,29,23,16,20,18,14,84,76,68,30.02,29.92,29.85,10,10,6,12,5,14,T,8,Snow,268
2013-2-24,38,20,1,20,11,-2,92,68,44,30.16,30.08,29.99,10,5,0,8,1,9,0.00,1,Fog,250
2013-2-25,41,31,20,25,22,19,92,73,54,30.17,30.12,30.03,10,6,2,7,2,9,T,5,Snow,88
2013-2-26,38,28,18,25,21,16,92,76,59,30.06,29.91,29.77,10,7,2,21,8,28,T,3,,4
2013-2-27,34,32,30,30,27,23,89,78,66,29.94,29.81,29.75,10,5,1,20,13,23,0.10,8,Snow,347
2013-2-28,32,30,28,27,22,16,85,72,58,30.21,30.08,29.91,10,9,3,18,10,22,T,8,Snow,353